Time;durP1;ratioP1;P1;durP2;ratioP2;P2;SDS_P1;SDS_P2;PMS_P1;PMS_P2;Temp;Humidity;BMP_temperature;BMP_pressure;BME280_temperature;BME280_humidity;BME280_pressure;Samples;Min_cycle;Max_cycle;Signal;HPM_P1;HPM_P2
2021/10/19 00:01:25;;;;;;;34.47;14.57;;;9.20;97.30;;;;;;5058501;28;20182;-85
2021/10/19 00:03:51;;;;;;;30.83;13.63;;;9.20;97.30;;;;;;5058052;28;20183;-85
2021/10/19 00:06:16;;;;;;;32.90;14.17;;;9.20;97.30;;;;;;5075326;28;20825;-84
2021/10/19 00:08:42;;;;;;;33.10;14.83;;;9.20;97.30;;;;;;5075204;28;20250;-86
2021/10/19 00:11:08;;;;;;;28.47;12.57;;;9.20;97.30;;;;;;5057433;28;20630;-85
2021/10/19 00:13:36;;;;;;;30.60;13.53;;;9.20;97.30;;;;;;5058178;28;20191;-86
2021/10/19 00:16:03;;;;;;;30.40;13.97;;;9.20;97.30;;;;;;5058351;28;20428;-85
2021/10/19 00:18:28;;;;;;;30.80;13.70;;;9.20;97.30;;;;;;5076076;28;20463;-86
2021/10/19 00:20:53;;;;;;;31.97;12.67;;;9.20;97.30;;;;;;5058177;28;20790;-86
2021/10/19 00:23:19;;;;;;;32.50;12.90;;;9.30;97.30;;;;;;5057705;28;20222;-86
2021/10/19 00:25:45;;;;;;;33.30;14.40;;;9.30;97.30;;;;;;5057184;28;20738;-85
2021/10/19 00:28:10;;;;;;;34.00;15.07;;;9.30;97.30;;;;;;5056596;28;20187;-85
2021/10/19 00:30:38;;;;;;;36.67;14.40;;;9.30;97.30;;;;;;5057252;28;20179;-85
2021/10/19 00:33:04;;;;;;;33.77;14.13;;;9.30;97.30;;;;;;5042441;28;20710;-85
2021/10/19 00:35:30;;;;;;;29.23;13.10;;;9.20;97.30;;;;;;5037811;28;20422;-85
2021/10/19 00:37:55;;;;;;;30.53;11.83;;;9.20;97.30;;;;;;5056514;28;20176;-85
2021/10/19 00:40:21;;;;;;;33.07;13.33;;;9.20;97.30;;;;;;5038145;28;20194;-86
2021/10/19 00:42:46;;;;;;;34.13;13.77;;;9.20;97.30;;;;;;5037693;28;20235;-85
2021/10/19 00:45:12;;;;;;;30.00;13.80;;;9.20;97.30;;;;;;5037561;28;20250;-85
2021/10/19 00:47:46;;;;;;;35.90;15.60;;;9.30;97.30;;;;;;5037222;28;20176;-85
2021/10/19 00:50:12;;;;;;;37.80;13.57;;;9.30;97.30;;;;;;5036708;28;20507;-86
2021/10/19 00:52:38;;;;;;;37.50;12.83;;;9.30;97.30;;;;;;5036881;28;20446;-85
2021/10/19 00:55:04;;;;;;;39.00;14.70;;;9.30;97.30;;;;;;5036852;28;20513;-85
2021/10/19 00:57:30;;;;;;;31.20;13.43;;;9.40;97.30;;;;;;5037913;28;20188;-85
2021/10/19 00:59:56;;;;;;;31.07;12.90;;;9.40;97.30;;;;;;5038642;28;20426;-85
2021/10/19 01:02:22;;;;;;;28.23;12.53;;;9.40;97.30;;;;;;5055432;28;20274;-85
2021/10/19 01:04:47;;;;;;;33.73;13.10;;;9.40;97.30;;;;;;5055795;28;20657;-85
2021/10/19 01:07:16;;;;;;;31.33;13.83;;;9.40;97.30;;;;;;5037304;28;20667;-86
2021/10/19 01:09:47;;;;;;;31.97;13.47;;;9.40;97.30;;;;;;5054198;28;20257;-85
2021/10/19 01:12:21;;;;;;;32.40;14.00;;;9.40;97.30;;;;;;5036448;28;20441;-85
2021/10/19 01:14:49;;;;;;;31.27;12.87;;;9.50;97.30;;;;;;5036673;28;20407;-85
2021/10/19 01:17:15;;;;;;;30.90;12.20;;;9.50;97.30;;;;;;5037394;28;20422;-85
2021/10/19 01:19:40;;;;;;;28.77;12.20;;;9.50;97.30;;;;;;5038230;28;20418;-86
2021/10/19 01:22:08;;;;;;;35.00;13.00;;;9.50;97.30;;;;;;5037766;28;20445;-86
2021/10/19 01:24:34;;;;;;;30.73;12.67;;;9.50;97.30;;;;;;5037433;28;20226;-85
2021/10/19 01:27:00;;;;;;;36.83;12.77;;;9.50;97.30;;;;;;5037322;28;20729;-86
2021/10/19 01:29:26;;;;;;;31.50;13.60;;;9.50;97.30;;;;;;5037543;28;20266;-86
2021/10/19 01:31:55;;;;;;;27.57;12.50;;;9.50;97.30;;;;;;5057609;28;20215;-85
2021/10/19 01:34:20;;;;;;;28.40;12.60;;;9.50;97.30;;;;;;5056330;28;20398;-85
2021/10/19 01:36:46;;;;;;;36.27;12.80;;;9.60;97.30;;;;;;5056225;28;20414;-85
2021/10/19 01:39:15;;;;;;;30.60;12.93;;;9.60;97.30;;;;;;5056724;28;20260;-85
2021/10/19 01:41:47;;;;;;;26.17;12.13;;;9.60;97.30;;;;;;5057490;28;20175;-85
2021/10/19 01:44:20;;;;;;;28.07;12.10;;;9.60;97.30;;;;;;5057189;28;20827;-84
2021/10/19 01:46:48;;;;;;;26.03;11.80;;;9.60;97.30;;;;;;5077537;28;20412;-86
2021/10/19 01:49:23;;;;;;;29.40;12.53;;;9.60;97.30;;;;;;5060978;28;20421;-86
2021/10/19 01:51:48;;;;;;;31.83;13.23;;;9.60;97.30;;;;;;5060633;28;20448;-85
2021/10/19 01:54:19;;;;;;;26.23;11.87;;;9.60;97.30;;;;;;5059999;28;20421;-84
2021/10/19 01:56:47;;;;;;;30.90;12.87;;;9.60;97.30;;;;;;5077855;28;20170;-86
2021/10/19 01:59:12;;;;;;;27.20;11.90;;;9.60;97.30;;;;;;5060549;28;20512;-86
2021/10/19 02:01:39;;;;;;;31.23;11.13;;;9.60;97.30;;;;;;5060362;28;20448;-86
2021/10/19 02:04:04;;;;;;;28.17;10.60;;;9.60;97.30;;;;;;5079172;28;20234;-86
2021/10/19 02:06:30;;;;;;;30.50;12.27;;;9.60;97.30;;;;;;5061192;28;20524;-86
2021/10/19 02:08:55;;;;;;;24.43;11.63;;;9.60;97.30;;;;;;5078363;28;20179;-86
2021/10/19 02:11:21;;;;;;;29.77;13.83;;;9.60;97.30;;;;;;5060853;28;20175;-86
2021/10/19 02:13:46;;;;;;;30.77;12.60;;;9.60;97.30;;;;;;5059895;28;20560;-85
2021/10/19 02:16:12;;;;;;;28.63;12.00;;;9.60;97.30;;;;;;5059453;28;20178;-85
2021/10/19 02:18:37;;;;;;;28.17;13.03;;;9.60;97.30;;;;;;5059836;28;20186;-86
2021/10/19 02:21:03;;;;;;;25.70;11.30;;;9.60;97.30;;;;;;5059517;28;20171;-85
2021/10/19 02:23:28;;;;;;;26.90;12.53;;;9.60;97.30;;;;;;5060318;28;20221;-85
2021/10/19 02:25:54;;;;;;;23.30;10.00;;;9.60;97.30;;;;;;5060760;28;20206;-85
2021/10/19 02:28:19;;;;;;;29.63;12.70;;;9.60;97.30;;;;;;5060604;28;20175;-86
2021/10/19 02:30:45;;;;;;;36.90;13.17;;;9.50;97.30;;;;;;5059991;28;20575;-86
2021/10/19 02:33:10;;;;;;;25.63;11.17;;;9.50;97.30;;;;;;5044695;28;20240;-85
2021/10/19 02:35:36;;;;;;;25.20;11.67;;;9.50;97.30;;;;;;5039790;28;20196;-85
2021/10/19 02:38:08;;;;;;;28.07;11.70;;;9.50;97.30;;;;;;5056852;28;20185;-85
2021/10/19 02:40:34;;;;;;;33.73;12.20;;;9.50;97.30;;;;;;5039152;28;20172;-85
2021/10/19 02:43:00;;;;;;;30.83;11.87;;;9.50;97.30;;;;;;5039155;28;20810;-86
2021/10/19 02:45:25;;;;;;;30.17;12.10;;;9.50;97.30;;;;;;5058246;28;20568;-86
2021/10/19 02:47:51;;;;;;;29.37;12.53;;;9.60;97.30;;;;;;5041043;28;20172;-86
2021/10/19 02:50:16;;;;;;;25.17;10.87;;;9.60;97.30;;;;;;5040247;28;20207;-86
2021/10/19 02:52:42;;;;;;;26.27;10.87;;;9.60;97.30;;;;;;5039688;28;20188;-86
2021/10/19 02:55:09;;;;;;;25.33;11.03;;;9.60;97.30;;;;;;5039679;28;20649;-86
2021/10/19 02:57:35;;;;;;;28.03;12.10;;;9.70;97.30;;;;;;5039142;28;20445;-86
2021/10/19 03:00:01;;;;;;;29.50;12.33;;;9.70;97.30;;;;;;5056491;28;20426;-86
2021/10/19 03:02:27;;;;;;;27.87;10.83;;;9.70;97.30;;;;;;5056929;28;20249;-85
2021/10/19 03:04:52;;;;;;;25.50;10.73;;;9.70;97.30;;;;;;5038951;28;20438;-86
2021/10/19 03:07:18;;;;;;;33.03;12.87;;;9.70;97.30;;;;;;5046205;28;20588;-85
2021/10/19 03:09:44;;;;;;;28.50;11.23;;;9.70;97.30;;;;;;5060978;28;20186;-85
2021/10/19 03:12:09;;;;;;;28.60;10.90;;;9.70;97.30;;;;;;5059381;28;20195;-86
2021/10/19 03:14:35;;;;;;;22.83;10.40;;;9.70;97.30;;;;;;5059757;28;20190;-86
2021/10/19 03:17:00;;;;;;;29.13;11.77;;;9.70;97.30;;;;;;5059926;28;20266;-86
2021/10/19 03:19:26;;;;;;;25.23;10.93;;;9.70;97.30;;;;;;5059054;28;20194;-85
2021/10/19 03:21:52;;;;;;;26.13;11.37;;;9.70;97.30;;;;;;5058477;28;20203;-84
2021/10/19 03:24:17;;;;;;;26.80;11.90;;;9.70;97.30;;;;;;5058120;28;20413;-85
2021/10/19 03:26:43;;;;;;;32.00;11.97;;;9.70;97.30;;;;;;5059136;28;20175;-86
2021/10/19 03:29:09;;;;;;;33.03;12.43;;;9.80;97.30;;;;;;5059202;28;20263;-85
2021/10/19 03:31:36;;;;;;;31.83;11.37;;;9.80;97.30;;;;;;5061467;28;20197;-85
2021/10/19 03:34:03;;;;;;;29.77;11.30;;;9.80;97.30;;;;;;5079539;28;20644;-85
2021/10/19 03:36:29;;;;;;;26.50;11.30;;;9.90;97.30;;;;;;5078728;28;20477;-85
2021/10/19 03:38:55;;;;;;;22.27;10.30;;;9.90;97.30;;;;;;5097375;28;20400;-86
2021/10/19 03:41:20;;;;;;;26.93;10.67;;;9.90;97.30;;;;;;5078168;28;20504;-85
2021/10/19 03:43:46;;;;;;;27.10;11.30;;;9.80;97.30;;;;;;5077720;28;20198;-86
2021/10/19 03:46:11;;;;;;;27.50;11.10;;;9.80;97.30;;;;;;5077956;28;20205;-86
2021/10/19 03:48:37;;;;;;;29.93;13.13;;;9.80;97.30;;;;;;5077154;28;20166;-86
2021/10/19 03:51:02;;;;;;;25.77;10.97;;;9.80;97.30;;;;;;5075817;28;20202;-86
2021/10/19 03:53:28;;;;;;;24.87;11.80;;;9.80;97.30;;;;;;5092057;22;20638;-80
2021/10/19 03:55:55;;;;;;;26.00;10.87;;;9.80;97.30;;;;;;5077707;28;20496;-80
2021/10/19 03:58:21;;;;;;;28.63;12.17;;;9.80;97.30;;;;;;5078021;28;20277;-79
2021/10/19 04:00:47;;;;;;;33.37;13.80;;;9.90;97.30;;;;;;5073178;28;20437;-80
2021/10/19 04:03:12;;;;;;;33.13;13.10;;;9.90;97.30;;;;;;5058147;28;20409;-80
2021/10/19 04:05:38;;;;;;;29.90;12.60;;;9.90;97.30;;;;;;5058543;28;20715;-80
2021/10/19 04:08:04;;;;;;;31.60;11.50;;;9.90;97.30;;;;;;5071485;28;20639;-80
2021/10/19 04:10:30;;;;;;;31.57;13.57;;;10.00;97.30;;;;;;5078356;28;20424;-80
2021/10/19 04:12:56;;;;;;;23.53;11.83;;;10.00;97.30;;;;;;5078285;28;20174;-80
2021/10/19 04:15:21;;;;;;;30.53;13.43;;;10.00;97.30;;;;;;5077132;28;20251;-80
2021/10/19 04:17:47;;;;;;;26.00;11.57;;;10.00;97.30;;;;;;5094978;28;20174;-80
2021/10/19 04:20:12;;;;;;;29.33;12.87;;;10.00;97.30;;;;;;5078156;28;20170;-80
2021/10/19 04:22:38;;;;;;;32.17;12.07;;;10.00;97.30;;;;;;5069527;28;20190;-80
2021/10/19 04:25:05;;;;;;;34.63;12.80;;;10.00;97.30;;;;;;5062605;28;20285;-80
2021/10/19 04:27:31;;;;;;;31.30;12.27;;;10.00;97.30;;;;;;5065337;28;20424;-80
2021/10/19 04:29:56;;;;;;;32.07;13.50;;;10.00;97.30;;;;;;5067411;28;20462;-80
2021/10/19 04:32:22;;;;;;;26.70;11.07;;;10.10;97.30;;;;;;5070401;28;20184;-80
2021/10/19 04:34:47;;;;;;;26.13;12.00;;;10.10;97.30;;;;;;5057851;28;20198;-80
2021/10/19 04:37:13;;;;;;;29.37;12.00;;;10.10;97.30;;;;;;5075004;28;20182;-80
2021/10/19 04:39:38;;;;;;;26.80;12.20;;;10.00;97.30;;;;;;5058010;28;20175;-80
2021/10/19 04:42:04;;;;;;;29.10;11.87;;;10.00;97.30;;;;;;5057477;28;20712;-80
2021/10/19 04:44:31;;;;;;;32.73;13.60;;;10.00;97.30;;;;;;5085954;28;20675;-80
2021/10/19 04:46:56;;;;;;;29.80;12.90;;;10.00;97.30;;;;;;5075658;28;20200;-79
2021/10/19 04:49:22;;;;;;;35.80;13.63;;;10.00;97.30;;;;;;5077404;28;20420;-80
2021/10/19 04:51:48;;;;;;;31.10;12.60;;;10.00;97.30;;;;;;5094594;28;20205;-81
2021/10/19 04:54:13;;;;;;;27.87;12.10;;;10.00;97.30;;;;;;5093911;28;20651;-82
2021/10/19 04:56:39;;;;;;;30.73;12.20;;;10.00;97.30;;;;;;5096887;28;20873;-82
2021/10/19 04:59:05;;;;;;;32.83;12.80;;;10.00;97.30;;;;;;5114844;28;20174;-81
2021/10/19 05:01:30;;;;;;;29.50;13.30;;;10.00;97.30;;;;;;5095417;28;20177;-82
2021/10/19 05:03:56;;;;;;;32.37;12.07;;;10.10;97.30;;;;;;5094952;28;20193;-79
2021/10/19 05:06:22;;;;;;;36.33;14.43;;;10.10;97.30;;;;;;5095428;28;20206;-82
2021/10/19 05:08:47;;;;;;;28.43;13.80;;;10.10;97.30;;;;;;5113890;28;20198;-81
2021/10/19 05:11:13;;;;;;;32.37;13.20;;;10.10;97.30;;;;;;5095437;28;20170;-82
2021/10/19 05:13:39;;;;;;;31.97;13.17;;;10.10;97.30;;;;;;5094929;28;20176;-80
2021/10/19 05:16:05;;;;;;;28.23;11.27;;;10.10;97.30;;;;;;5096130;28;20173;-81
2021/10/19 05:18:31;;;;;;;27.93;12.20;;;10.10;97.30;;;;;;5096482;28;20182;-81
2021/10/19 05:20:56;;;;;;;27.83;12.17;;;10.10;97.30;;;;;;5099216;28;20202;-81
2021/10/19 05:23:22;;;;;;;29.87;12.33;;;10.10;97.30;;;;;;5101386;28;20198;-81
2021/10/19 05:25:48;;;;;;;29.40;11.77;;;10.20;97.30;;;;;;5102172;28;20209;-81
2021/10/19 05:28:13;;;;;;;30.67;13.53;;;10.20;97.30;;;;;;5102575;28;20184;-81
2021/10/19 05:30:39;;;;;;;35.23;14.23;;;10.20;97.30;;;;;;5102207;28;20170;-81
2021/10/19 05:33:05;;;;;;;33.53;14.07;;;10.20;97.30;;;;;;5101235;28;20598;-81
2021/10/19 05:35:32;;;;;;;28.93;12.13;;;10.10;97.30;;;;;;5100940;28;20202;-81
2021/10/19 05:37:58;;;;;;;33.67;12.93;;;10.20;97.30;;;;;;5101429;28;20440;-81
2021/10/19 05:40:24;;;;;;;26.67;12.43;;;10.20;97.30;;;;;;5101351;28;20462;-82
2021/10/19 05:42:50;;;;;;;28.77;12.33;;;10.20;97.30;;;;;;5100726;28;20427;-81
2021/10/19 05:45:17;;;;;;;32.63;12.70;;;10.20;97.30;;;;;;5101298;28;20459;-80
2021/10/19 05:47:45;;;;;;;30.17;11.90;;;10.20;97.30;;;;;;5100597;28;20178;-81
2021/10/19 05:50:12;;;;;;;30.50;13.70;;;10.20;97.30;;;;;;5097164;28;20422;-81
2021/10/19 05:52:37;;;;;;;28.40;12.37;;;10.20;97.30;;;;;;5100242;28;20540;-81
2021/10/19 05:55:04;;;;;;;30.50;11.43;;;10.30;97.30;;;;;;5101205;28;20440;-83
2021/10/19 05:57:30;;;;;;;38.03;14.10;;;10.30;97.30;;;;;;5080518;28;20247;-82
2021/10/19 05:59:55;;;;;;;27.30;12.23;;;10.30;97.30;;;;;;5080924;28;20472;-83
2021/10/19 06:02:21;;;;;;;25.20;11.83;;;10.30;97.30;;;;;;5079765;28;20183;-82
2021/10/19 06:04:46;;;;;;;29.97;13.07;;;10.30;97.30;;;;;;5080210;28;20219;-82
2021/10/19 06:07:12;;;;;;;30.13;11.47;;;10.30;97.30;;;;;;5085895;28;20215;-82
2021/10/19 06:09:38;;;;;;;33.17;13.40;;;10.30;97.30;;;;;;5100108;28;20654;-82
2021/10/19 06:12:03;;;;;;;32.87;13.30;;;10.30;97.30;;;;;;5118847;28;20170;-82
2021/10/19 06:14:29;;;;;;;32.23;13.10;;;10.30;97.30;;;;;;5099903;28;20198;-82
2021/10/19 06:16:55;;;;;;;30.90;12.20;;;10.40;97.30;;;;;;5100207;28;20176;-82
2021/10/19 06:19:20;;;;;;;27.70;11.30;;;10.40;97.30;;;;;;5099910;28;20230;-83
2021/10/19 06:21:46;;;;;;;28.03;11.63;;;10.40;97.30;;;;;;5099566;28;20174;-83
2021/10/19 06:24:12;;;;;;;30.17;13.77;;;10.40;97.30;;;;;;5099940;28;20189;-82
2021/10/19 06:26:38;;;;;;;31.17;12.37;;;10.40;97.30;;;;;;5098215;28;20840;-82
2021/10/19 06:29:06;;;;;;;25.43;11.83;;;10.40;97.30;;;;;;5118505;28;20239;-83
2021/10/19 06:31:32;;;;;;;32.03;12.40;;;10.40;97.30;;;;;;5099798;28;20177;-82
2021/10/19 06:33:57;;;;;;;28.23;12.00;;;10.40;97.30;;;;;;5101994;28;20486;-82
2021/10/19 06:36:23;;;;;;;24.63;11.20;;;10.50;97.30;;;;;;5101733;28;20223;-81
2021/10/19 06:38:48;;;;;;;31.57;10.83;;;10.50;97.30;;;;;;5102024;28;20223;-82
2021/10/19 06:41:14;;;;;;;30.40;11.53;;;10.60;97.30;;;;;;5102094;28;20203;-82
2021/10/19 06:43:40;;;;;;;34.40;12.20;;;10.60;97.30;;;;;;5101762;28;20181;-82
2021/10/19 06:46:05;;;;;;;24.60;11.73;;;10.70;97.30;;;;;;5102029;28;20204;-82
2021/10/19 06:48:31;;;;;;;27.27;11.20;;;10.70;97.30;;;;;;5119855;28;20612;-82
2021/10/19 06:50:57;;;;;;;33.47;11.20;;;10.80;97.30;;;;;;5100389;28;20242;-82
2021/10/19 06:53:22;;;;;;;25.77;11.00;;;10.80;97.30;;;;;;5099453;28;20232;-82
2021/10/19 06:55:48;;;;;;;24.57;11.20;;;10.80;97.30;;;;;;5100483;28;20198;-80
2021/10/19 06:58:14;;;;;;;28.70;11.67;;;10.90;97.30;;;;;;5101123;28;20208;-80
2021/10/19 07:00:40;;;;;;;27.43;10.80;;;10.90;97.30;;;;;;5100977;28;20185;-81
2021/10/19 07:03:05;;;;;;;25.27;11.30;;;10.90;97.30;;;;;;5101834;28;20174;-80
2021/10/19 07:05:31;;;;;;;25.77;11.10;;;10.90;97.30;;;;;;5101324;28;20575;-80
2021/10/19 07:07:57;;;;;;;23.00;11.30;;;11.00;97.30;;;;;;5100861;28;20181;-80
2021/10/19 07:10:23;;;;;;;24.93;10.57;;;11.00;97.30;;;;;;5101346;28;20420;-81
2021/10/19 07:12:48;;;;;;;26.93;10.37;;;11.00;97.30;;;;;;5101242;28;20200;-81
2021/10/19 07:15:15;;;;;;;29.60;10.93;;;11.10;97.30;;;;;;5099549;28;20205;-82
2021/10/19 07:17:41;;;;;;;28.77;11.70;;;11.10;97.30;;;;;;5099449;28;20185;-82
2021/10/19 07:20:09;;;;;;;24.40;10.70;;;11.10;97.30;;;;;;5100912;28;20427;-81
2021/10/19 07:22:36;;;;;;;27.20;10.80;;;11.20;97.30;;;;;;5100278;28;20408;-82
2021/10/19 07:25:03;;;;;;;25.00;10.60;;;11.20;97.30;;;;;;5099866;28;20546;-81
2021/10/19 07:27:30;;;;;;;30.60;10.73;;;11.20;97.30;;;;;;5098641;28;20457;-82
2021/10/19 07:29:55;;;;;;;23.07;11.63;;;11.30;97.30;;;;;;5099063;28;20506;-81
2021/10/19 07:32:21;;;;;;;25.40;11.00;;;11.40;97.30;;;;;;5100100;28;20447;-80
2021/10/19 07:34:46;;;;;;;18.43;9.30;;;11.40;97.30;;;;;;5099813;28;20719;-81
2021/10/19 07:37:12;;;;;;;29.77;13.07;;;11.50;97.30;;;;;;5100133;28;20181;-80
2021/10/19 07:39:37;;;;;;;21.23;10.37;;;11.50;97.30;;;;;;5099658;28;20206;-80
2021/10/19 07:42:03;;;;;;;23.87;11.37;;;11.60;97.30;;;;;;5099999;28;20182;-81
2021/10/19 07:44:29;;;;;;;24.57;9.87;;;11.60;97.30;;;;;;5099008;28;20198;-82
2021/10/19 07:46:55;;;;;;;20.43;9.73;;;11.70;97.30;;;;;;5092846;28;20185;-80
2021/10/19 07:49:21;;;;;;;21.40;11.00;;;11.70;97.30;;;;;;5095913;28;20705;-81
2021/10/19 07:51:47;;;;;;;29.70;12.10;;;11.80;97.30;;;;;;5077451;28;20417;-81
2021/10/19 07:54:13;;;;;;;23.00;10.20;;;11.80;97.30;;;;;;5095459;28;20186;-82
2021/10/19 07:56:39;;;;;;;21.90;9.73;;;11.90;97.30;;;;;;5077800;28;20428;-82
2021/10/19 07:59:05;;;;;;;19.93;10.40;;;12.00;97.30;;;;;;5077943;28;20426;-83
2021/10/19 08:01:34;;;;;;;22.07;10.10;;;12.00;97.30;;;;;;5077507;28;20488;-82
2021/10/19 08:04:00;;;;;;;22.93;9.80;;;12.10;97.30;;;;;;5094864;28;20463;-81
2021/10/19 08:06:26;;;;;;;22.40;9.73;;;12.20;97.30;;;;;;5096042;28;20464;-81
2021/10/19 08:08:52;;;;;;;22.30;10.13;;;12.20;97.30;;;;;;5077015;28;20417;-80
2021/10/19 08:11:18;;;;;;;18.60;8.20;;;12.20;97.30;;;;;;5095014;28;20400;-81
2021/10/19 08:13:44;;;;;;;22.40;11.20;;;12.30;97.30;;;;;;5076266;28;21009;-81
2021/10/19 08:16:09;;;;;;;19.40;9.60;;;12.30;97.30;;;;;;5076756;28;20231;-81
2021/10/19 08:18:35;;;;;;;20.67;9.27;;;12.40;97.30;;;;;;5095102;28;20446;-82
2021/10/19 08:21:00;;;;;;;21.37;9.77;;;12.50;97.30;;;;;;5076969;28;20187;-81
2021/10/19 08:23:27;;;;;;;22.97;10.23;;;12.50;97.30;;;;;;5077605;28;20178;-81
2021/10/19 08:25:53;;;;;;;32.40;11.60;;;12.50;97.30;;;;;;5077324;28;20244;-82
2021/10/19 08:28:29;;;;;;;25.03;10.03;;;12.60;97.30;;;;;;5077911;28;20476;-82
2021/10/19 08:30:55;;;;;;;25.90;10.70;;;12.60;97.30;;;;;;5079828;28;20824;-82
2021/10/19 08:33:20;;;;;;;23.40;9.70;;;12.70;97.30;;;;;;5079527;28;20408;-82
2021/10/19 08:35:46;;;;;;;21.40;10.07;;;12.80;97.30;;;;;;5079252;28;20689;-84
2021/10/19 08:38:13;;;;;;;21.23;9.67;;;12.80;97.30;;;;;;5080469;28;20174;-84
2021/10/19 08:40:40;;;;;;;20.73;9.33;;;12.90;97.30;;;;;;5080438;28;20183;-83
2021/10/19 08:43:06;;;;;;;22.70;10.10;;;12.90;97.30;;;;;;5081428;28;20944;-82
2021/10/19 08:45:32;;;;;;;18.47;9.60;;;13.00;97.30;;;;;;5097109;28;20456;-85
2021/10/19 08:48:00;;;;;;;21.60;9.57;;;13.00;97.30;;;;;;5079467;28;20992;-81
2021/10/19 08:50:26;;;;;;;19.53;8.87;;;13.00;97.30;;;;;;5080644;28;20171;-81
2021/10/19 08:52:52;;;;;;;19.30;8.53;;;13.10;97.30;;;;;;5079760;28;20449;-82
2021/10/19 08:55:18;;;;;;;21.07;10.00;;;13.20;97.30;;;;;;5078977;28;20497;-82
2021/10/19 08:57:44;;;;;;;21.53;9.07;;;13.20;97.30;;;;;;5079142;28;20416;-82
2021/10/19 09:00:10;;;;;;;24.13;10.67;;;13.30;97.30;;;;;;5080041;28;20427;-81
2021/10/19 09:02:37;;;;;;;20.50;9.27;;;13.30;97.30;;;;;;5079711;28;20202;-80
2021/10/19 09:05:13;;;;;;;20.97;9.80;;;13.40;97.30;;;;;;5079377;28;20452;-80
2021/10/19 09:07:39;;;;;;;22.60;10.47;;;13.40;97.30;;;;;;5079798;28;20411;-80
2021/10/19 09:10:15;;;;;;;23.27;10.07;;;13.50;97.30;;;;;;5078825;28;20775;-79
2021/10/19 09:12:55;;;;;;;22.13;10.33;;;13.60;97.30;;;;;;5079434;28;20417;-82
2021/10/19 09:15:24;;;;;;;20.67;9.10;;;13.70;97.30;;;;;;5075136;28;20436;-79
2021/10/19 09:17:50;;;;;;;17.60;9.07;;;13.70;97.30;;;;;;5073800;28;20424;-79
2021/10/19 09:20:17;;;;;;;18.80;9.20;;;13.70;97.30;;;;;;5074342;28;20413;-79
2021/10/19 09:22:56;;;;;;;20.97;9.93;;;13.70;97.30;;;;;;5074432;28;20467;-79
2021/10/19 09:25:42;;;;;;;30.67;10.27;;;13.80;97.30;;;;;;5074215;28;20827;-80
2021/10/19 09:28:11;;;;;;;22.87;9.23;;;13.90;97.30;;;;;;5074720;28;20405;-79
2021/10/19 09:30:49;;;;;;;26.23;10.43;;;14.00;97.30;;;;;;5092778;28;20407;-79
2021/10/19 09:33:19;;;;;;;16.30;8.67;;;14.10;97.30;;;;;;5074179;28;20791;-81
2021/10/19 09:35:50;;;;;;;19.47;10.10;;;14.20;97.30;;;;;;5073481;28;20443;-80
2021/10/19 09:38:17;;;;;;;21.30;9.17;;;14.30;97.30;;;;;;5073677;28;20430;-79
2021/10/19 09:40:45;;;;;;;17.90;8.00;;;14.40;97.30;;;;;;5077165;28;20802;-81
2021/10/19 09:43:16;;;;;;;19.70;9.47;;;14.50;97.20;;;;;;5074603;28;20420;-79
2021/10/19 09:45:46;;;;;;;19.10;8.70;;;14.60;97.30;;;;;;5073084;28;20645;-79
2021/10/19 09:48:14;;;;;;;23.70;9.83;;;14.70;97.20;;;;;;5073320;28;20427;-80
2021/10/19 09:50:41;;;;;;;17.20;8.30;;;14.80;97.00;;;;;;5073766;28;20421;-79
2021/10/19 09:53:11;;;;;;;16.13;8.50;;;14.80;97.30;;;;;;5074327;28;20985;-80
2021/10/19 09:55:38;;;;;;;20.17;9.57;;;14.80;96.60;;;;;;5091717;28;20435;-79
2021/10/19 09:58:05;;;;;;;27.10;9.23;;;14.90;97.00;;;;;;5073163;28;20416;-79
2021/10/19 10:00:33;;;;;;;21.13;8.30;;;15.10;96.50;;;;;;5072711;28;20427;-79
2021/10/19 10:03:03;;;;;;;18.90;9.53;;;15.20;96.40;;;;;;5073726;28;20421;-79
2021/10/19 10:05:28;;;;;;;14.93;6.93;;;15.40;95.40;;;;;;5073269;28;20471;-79
2021/10/19 10:07:54;;;;;;;18.23;8.53;;;15.50;95.60;;;;;;5088519;28;20419;-79
2021/10/19 10:10:22;;;;;;;15.50;8.13;;;15.70;95.20;;;;;;5097872;28;20178;-79
2021/10/19 10:12:58;;;;;;;14.67;8.43;;;15.70;95.10;;;;;;5099196;28;20411;-80
2021/10/19 10:15:26;;;;;;;17.93;7.97;;;15.80;94.70;;;;;;5098212;28;20809;-81
2021/10/19 10:18:00;;;;;;;16.63;7.90;;;15.80;94.70;;;;;;5116833;28;20433;-79
2021/10/19 10:21:10;;;;;;;14.33;8.37;;;15.80;94.70;;;;;;5098416;28;20419;-79
2021/10/19 10:23:35;;;;;;;15.23;7.80;;;15.80;94.30;;;;;;5077738;28;20415;-83
2021/10/19 10:26:01;;;;;;;14.90;7.17;;;15.90;94.50;;;;;;5100197;28;20455;-83
2021/10/19 10:28:32;;;;;;;15.37;7.67;;;16.00;95.20;;;;;;5119015;28;20166;-82
2021/10/19 10:31:05;;;;;;;15.83;7.00;;;16.20;94.40;;;;;;5100163;28;20453;-83
2021/10/19 10:33:35;;;;;;;13.93;7.17;;;16.30;94.20;;;;;;5118058;28;20484;-83
2021/10/19 10:36:09;;;;;;;14.97;7.33;;;16.50;94.50;;;;;;5099988;28;20427;-82
2021/10/19 10:38:36;;;;;;;14.77;6.23;;;16.50;93.50;;;;;;5099614;28;20859;-83
2021/10/19 10:41:14;;;;;;;11.77;7.30;;;16.60;93.60;;;;;;5117841;28;20754;-83
2021/10/19 10:43:41;;;;;;;10.70;6.10;;;16.70;93.60;;;;;;5101352;28;20422;-82
2021/10/19 10:46:14;;;;;;;13.90;6.10;;;16.80;93.70;;;;;;5101414;28;20462;-83
2021/10/19 10:48:40;;;;;;;11.13;6.03;;;16.80;93.80;;;;;;5101661;28;20400;-83
2021/10/19 10:51:08;;;;;;;13.60;6.40;;;16.80;93.30;;;;;;5101496;28;20407;-80
2021/10/19 10:53:43;;;;;;;11.37;5.40;;;16.70;93.90;;;;;;5100424;28;20486;-83
2021/10/19 10:56:11;;;;;;;13.60;5.73;;;16.70;93.50;;;;;;5101166;28;20415;-82
2021/10/19 10:58:38;;;;;;;12.70;6.37;;;16.70;94.50;;;;;;5119134;28;20449;-83
2021/10/19 11:01:13;;;;;;;10.33;5.10;;;16.80;93.80;;;;;;5100612;28;20474;-83
2021/10/19 11:03:39;;;;;;;10.30;5.37;;;16.90;94.10;;;;;;5099989;28;20411;-84
2021/10/19 11:06:04;;;;;;;9.70;5.50;;;17.10;93.70;;;;;;5098742;28;20964;-84
2021/10/19 11:08:32;;;;;;;11.07;5.60;;;17.20;93.40;;;;;;5082264;28;20758;-83
2021/10/19 11:11:08;;;;;;;9.73;5.50;;;17.50;93.60;;;;;;5078358;28;20175;-83
2021/10/19 11:13:54;;;;;;;14.90;5.60;;;17.80;93.40;;;;;;5078708;28;20416;-82
2021/10/19 11:16:45;;;;;;;10.37;5.30;;;18.00;92.70;;;;;;5078785;28;20429;-82
2021/10/19 11:19:22;;;;;;;6.17;4.40;;;17.90;93.50;;;;;;5079028;28;20435;-83
2021/10/19 11:22:00;;;;;;;7.07;4.60;;;17.70;93.40;;;;;;5078217;28;20510;-83
2021/10/19 11:24:28;;;;;;;7.07;4.03;;;17.60;94.00;;;;;;5077790;28;20451;-84
2021/10/19 11:26:54;;;;;;;6.10;3.70;;;17.50;94.60;;;;;;5077732;28;20489;-85
2021/10/19 11:29:20;;;;;;;6.40;4.20;;;17.50;94.90;;;;;;5078026;28;20413;-82
2021/10/19 11:31:47;;;;;;;6.67;4.10;;;17.40;94.90;;;;;;5077391;28;20443;-84
2021/10/19 11:34:13;;;;;;;5.53;3.60;;;17.40;95.40;;;;;;5078218;28;20429;-84
2021/10/19 11:36:39;;;;;;;6.47;4.03;;;17.40;95.20;;;;;;5077470;28;20421;-84
2021/10/19 11:39:11;;;;;;;4.80;3.73;;;17.40;95.50;;;;;;5072656;28;20418;-84
2021/10/19 11:41:38;;;;;;;6.30;3.67;;;17.50;95.80;;;;;;5077833;28;20171;-83
2021/10/19 11:44:06;;;;;;;6.37;3.43;;;17.70;95.80;;;;;;5080690;28;20519;-85
2021/10/19 11:46:35;;;;;;;8.50;4.73;;;17.80;94.90;;;;;;5077517;28;20838;-82
2021/10/19 11:49:07;;;;;;;6.53;4.00;;;17.70;95.20;;;;;;5076949;28;20431;-84
2021/10/19 11:51:33;;;;;;;5.77;3.77;;;17.70;95.20;;;;;;5076875;28;20924;-80
2021/10/19 11:54:02;;;;;;;5.80;3.37;;;17.80;95.50;;;;;;5078155;28;20535;-82
2021/10/19 11:56:30;;;;;;;6.03;3.93;;;17.80;95.30;;;;;;5076650;28;20413;-85
2021/10/19 11:59:02;;;;;;;6.60;3.90;;;17.80;95.00;;;;;;5067955;28;20805;-84
2021/10/19 12:01:35;;;;;;;9.33;4.13;;;17.70;95.30;;;;;;5095735;28;20428;-82
2021/10/19 12:04:04;;;;;;;9.10;3.73;;;17.80;95.50;;;;;;5077489;28;20823;-82
2021/10/19 12:06:31;;;;;;;6.20;4.03;;;17.70;95.50;;;;;;5077670;28;20488;-82
2021/10/19 12:09:27;;;;;;;7.70;3.77;;;17.70;95.60;;;;;;5057346;28;20410;-83
2021/10/19 12:11:56;;;;;;;6.40;3.77;;;17.60;95.90;;;;;;5075621;28;20487;-83
2021/10/19 12:14:30;;;;;;;6.80;3.83;;;17.50;96.00;;;;;;5058329;28;20438;-82
2021/10/19 12:16:58;;;;;;;8.50;4.20;;;17.40;96.30;;;;;;5059023;28;20425;-82
2021/10/19 12:19:24;;;;;;;8.03;4.80;;;17.40;97.00;;;;;;5059123;28;20421;-82
2021/10/19 12:21:54;;;;;;;7.03;3.70;;;17.30;96.70;;;;;;5059132;28;20417;-83
2021/10/19 12:24:21;;;;;;;8.60;4.53;;;17.30;97.20;;;;;;5059048;28;20441;-81
2021/10/19 12:26:56;;;;;;;5.93;3.60;;;17.30;97.30;;;;;;5059076;28;20450;-79
2021/10/19 12:29:22;;;;;;;6.20;3.73;;;17.20;97.30;;;;;;5058374;28;20504;-80
2021/10/19 12:31:48;;;;;;;5.93;3.57;;;17.20;97.30;;;;;;5060115;28;20453;-81
2021/10/19 12:34:13;;;;;;;6.80;4.27;;;17.20;97.30;;;;;;5075608;28;20187;-81
2021/10/19 12:36:40;;;;;;;7.13;3.80;;;17.30;97.30;;;;;;5075254;28;20179;-82